Bodega Marine Reserve, California Weather observations

Data are for 10 minute period ending at time listed.
 Day   Time   Solar   Ave.   Ave.  Ave.  Vector  Max.   Baro.   Total    
  of    of     Rad.   Air    Rel.  Wind   Wind   Wind  Press.  Precip.   
Year   Day            Temp.  Hum.  Speed  Dir.   Gust                    
2017   (PST)  Kw/m2    F      %     mph   deg.    mph    mb.     in.     
-------------------------------------------------------------------------
 116   15:20   0.33   56.9    94   10.9   288    15.2   1014.9    0.00 
 116   15:30   0.45   56.8    94   11.8   287    17.2   1014.6    0.00 
 116   15:40   0.44   57.4    93   12.1   289    17.3   1014.6    0.00 
 116   15:50   0.33   56.9    92   14.0   288    18.0   1014.6    0.00 
 116   16:00   0.22   56.3    93   12.2   291    18.0   1014.6    0.00 
 116   16:10   0.17   55.7    93   13.3   292    18.0   1014.6    0.00 
 116   16:20   0.22   55.6    94   14.1   294    19.4   1014.9    0.00 
 116   16:30   0.27   55.8    93   13.2   292    18.9   1014.6    0.00 
 116   16:40   0.35   56.4    93   13.9   290    20.8   1014.6    0.00 
 116   16:50   0.29   56.8    92   13.3   289    18.6   1014.6    0.00 
 116   17:00   0.23   56.2    91   13.4   290    17.8   1014.6    0.00 
 116   17:10   0.21   55.7    91   13.9   288    18.2   1014.6    0.00 
 116   17:20   0.20   55.5    92   14.0   288    19.2   1014.2    0.00 
 116   17:30   0.13   55.3    92   13.2   293    18.1   1014.2    0.00 
 116   17:40   0.16   55.3    92   12.6   295    19.0   1014.2    0.00 
 116   17:50   0.21   55.6    92   13.0   289    17.5   1014.2    0.00 
 116   18:00   0.19   55.5    92   12.4   292    17.4   1014.2    0.00 
 116   18:10   0.22   55.8    91   13.7   297    20.5   1014.6    0.00 
 116   18:20   0.14   55.5    91   15.1   297    20.4   1014.2    0.00 
 116   18:30   0.14   55.0    91   14.0   298    18.8   1014.2    0.00 
 116   18:40   0.15   55.0    91   15.4   297    21.4   1014.2    0.00 
 116   18:50   0.13   54.6    91   17.9   298    23.7   1014.2    0.00 
 116   19:00   0.14   54.6    90   17.1   300    22.1   1014.6    0.00 
 116   19:10   0.11   54.4    90   16.5   298    23.5   1014.2    0.00 
 116   19:20   0.09   54.1    91   16.7   298    22.1   1014.2    0.00 
 116   19:30   0.06   53.9    91   16.3   299    22.1   1013.9    0.00 
 116   19:40   0.04   53.5    92   15.6   300    20.0   1013.9    0.00 
 116   19:50   0.02   53.2    92   15.5   302    21.6   1014.2    0.00 
 116   20:00   0.00   52.8    92   15.2   301    21.6   1014.2    0.00 
 116   20:10   0.00   52.8    93   15.3   300    20.5   1014.2    0.00 
 116   20:20   0.00   52.5    93   12.4   304    16.1   1013.9    0.00 
 116   20:30   0.00   52.4    93   10.0   311    14.5   1013.9    0.00 
 116   20:40   0.00   52.2    93   10.9   303    14.6   1014.2    0.00 
 116   20:50   0.00   52.4    94   11.9   299    17.3   1014.2    0.00 
 116   21:00   0.00   52.1    93   13.7   296    18.9   1014.2    0.00 
 116   21:10   0.00   51.9    94   16.8   298    23.0   1014.6    0.00 
 116   21:20   0.00   51.9    94   17.1   298    22.3   1014.6    0.00 
 116   21:30   0.00   51.9    94   16.8   296    22.0   1014.6    0.00 
 116   21:40   0.00   51.7    93   14.4   299    20.6   1014.6    0.00 
 116   21:50   0.00   51.8    94   14.3   298    20.7   1014.6    0.00 
 116   22:00   0.00   52.0    94   17.6   300    25.7   1014.6    0.00 
 116   22:10   0.00   51.5    94   19.5   298    27.0   1014.6    0.00 
 116   22:20   0.00   51.3    94   19.4   299    26.5   1014.9    0.00 
 116   22:30   0.00   51.1    93   18.5   302    23.0   1014.6    0.00 
 116   22:40   0.00   51.0    93   19.0   302    24.1   1014.6    0.00 
 116   22:50   0.00   50.8    93   16.8   305    22.1   1014.6    0.00 
 116   23:00   0.00   50.8    93   18.9   306    24.1   1014.6    0.00 
 116   23:10   0.00   50.8    92   19.9   301    26.3   1014.6    0.00 
 116   23:20   0.00   50.8    92   19.9   301    25.3   1014.6    0.00 
 116   23:30   0.00   50.8    93   19.1   300    24.9   1014.6    0.00 
 116   23:40   0.00   50.7    93   19.0   303    27.3   1014.6    0.00 
 116   23:50   0.00   50.6    93   17.9   306    25.1   1014.6    0.00 
 117    0:00   0.00   50.7    93   18.0   306    23.7   1014.2    0.00 
 117    0:10   0.00   50.7    93   18.6   304    25.3   1014.2    0.00 
 117    0:20   0.00   50.6    93   18.0   299    23.6   1013.9    0.00 
 117    0:30   0.00   50.7    93   18.5   300    23.8   1014.2    0.00 
 117    0:40   0.00   50.7    93   19.3   300    25.3   1014.2    0.00 
 117    0:50   0.00   50.7    93   18.0   301    24.0   1014.2    0.00 
 117    1:00   0.00   50.7    93   18.3   302    24.4   1014.2    0.00 
 117    1:10   0.00   50.7    93   18.3   303    23.8   1014.2    0.00 
 117    1:20   0.00   50.6    93   16.6   302    22.0   1014.2    0.00 
 117    1:30   0.00   50.5    93   15.9   304    21.9   1014.2    0.00 
 117    1:40   0.00   50.5    93   14.9   308    20.6   1013.9    0.00 
 117    1:50   0.00   50.6    93   14.3   319    18.5   1013.9    0.00 
 117    2:00   0.00   50.5    93   14.8   319    18.5   1013.9    0.00 
 117    2:10   0.00   50.3    94   12.5   318    16.6   1013.9    0.00 
 117    2:20   0.00   50.4    94   12.5   317    18.3   1014.2    0.00 
 117    2:30   0.00   50.5    94   15.0   309    21.4   1014.2    0.00 
 117    2:40   0.00   50.4    94   14.1   314    18.6   1014.2    0.00 
 117    2:50   0.00   50.4    94   12.2   324    17.3   1014.2    0.00 
 117    3:00   0.00   50.3    94   11.6   321    17.2   1014.2    0.00 
 117    3:10   0.00   50.1    94   11.3   320    16.3   1014.2    0.00 
 117    3:20   0.00   50.2    94   14.0   312    20.8   1014.2    0.00 
 117    3:30   0.00   50.3    94   16.0   310    21.4   1014.2    0.00 
 117    3:40   0.00   50.3    93   17.1   312    22.6   1014.2    0.00 
 117    3:50   0.00   50.3    93   17.0   314    24.3   1014.2    0.00 
 117    4:00   0.00   50.3    93   17.8   316    24.4   1014.6    0.00 
 117    4:10   0.00   50.2    92   19.2   318    25.6   1014.6    0.00 
 117    4:20   0.00   50.1    91   18.0   316    24.0   1014.6    0.00 
 117    4:30   0.00   50.0    91   19.3   313    25.1   1014.2    0.00 
 117    4:40   0.00   49.8    91   17.8   312    23.2   1013.9    0.00 
 117    4:50   0.00   49.7    91   17.6   313    22.9   1013.9    0.00 
 117    5:00   0.00   49.5    90   20.0   304    28.3   1013.9    0.00 
 117    5:10   100.00  99999.0   99999  99999.0   99999   99999.0   99999.0   99999.00 
 117    5:20   0.00   49.5    89   20.2   305    26.6   1013.9    0.00 
 117    5:30   0.00   49.4    89   20.6   305    26.6   1013.9    0.00 
 117    5:40   0.00   49.4    88   20.2   305    26.0   1013.9    0.00 
 117    5:50   0.00   49.3    88   20.7   304    26.4   1014.2    0.00 
 117    6:00   0.00   49.3    88   20.6   305    26.8   1013.9    0.00 
 117    6:10   100.00  99999.0   99999  99999.0   99999   99999.0   99999.0   99999.00 
 117    6:20   100.00  99999.0   99999  99999.0   99999   99999.0   99999.0   99999.00 
 117    6:30   100.00  99999.0   99999  99999.0   99999   99999.0   99999.0   99999.00 
 117    6:40   100.00  99999.0   99999  99999.0   99999   99999.0   99999.0   99999.00 
 117    6:50   100.00  99999.0   99999  99999.0   99999   99999.0   99999.0   99999.00 
 117    7:00   0.07   49.6    83   12.5   314    17.3   1013.9    0.00 
 117    7:10   0.07   49.8    84   14.5   310    22.0   1013.9    0.00 
 117    7:20   0.09   49.9    83   14.2   312    20.3   1014.2    0.00 
 117    7:30   0.12   50.3    82   17.1   309    23.4   1014.6    0.00 
 117    7:40   0.11   50.5    81   18.5   311    26.7   1014.6    0.00 
 117    7:50   0.17   50.8    80   20.4   312    26.2   1014.6    0.00 
 117    8:00   0.17   51.0    79   20.0   313    24.7   1014.6    0.00 
 117    8:10   0.19   51.0    79   18.5   316    23.8   1014.6    0.00 
 117    8:20   0.27   51.4    78   17.8   314    23.8   1014.6    0.00 
 117    8:30   0.25   51.8    76   15.7   314    21.3   1014.9    0.00 
 117    8:40   0.30   51.9    77   13.8   317    19.5   1014.9    0.00 
 117    8:50   0.37   52.7    76   18.3   311    25.0   1014.9    0.00 
 117    9:00   0.28   52.3    76   20.0   311    27.0   1015.2    0.00 
 117    9:10   0.34   52.2    74   19.4   316    26.2   1015.2    0.00 
 117    9:20   0.42   53.2    73   14.5   323    23.7   1015.6    0.00 
 117    9:30   0.50   54.3    72   11.4   336    16.0   1015.6    0.00 
 117    9:40   0.40   54.6    71   12.4   335    19.6   1015.9    0.00 
 117    9:50   0.49   54.0    71   16.5   323    25.9   1015.9    0.00 
 117   10:00   0.60   54.7    71   14.6   325    22.4   1015.9    0.00 
 117   10:10   0.61   55.4    70   15.4   325    21.2   1016.3    0.00 
 117   10:20   0.64   55.2    71   18.3   314    26.0   1015.9    0.00 
 117   10:30   0.65   55.2    70   20.4   311    27.0   1015.6    0.00 
 117   10:40   0.68   55.4    70   20.2   313    27.7   1015.6    0.00 
 117   10:50   0.71   55.6    70   22.0   311    32.5   1015.9    0.00 
 117   11:00   0.72   55.7    70   23.2   308    33.1   1015.9    0.00 
 117   11:10   100.00  99999.0   99999  99999.0   99999   99999.0   99999.0   99999.00 
 117   11:20   100.00  99999.0   99999  99999.0   99999   99999.0   99999.0   99999.00 
 117   11:30   100.00  99999.0   99999  99999.0   99999   99999.0   99999.0   99999.00 
 117   11:40   100.00  99999.0   99999  99999.0   99999   99999.0   99999.0   99999.00 
 117   11:50   100.00  99999.0   99999  99999.0   99999   99999.0   99999.0   99999.00 
 117   12:00   100.00  99999.0   99999  99999.0   99999   99999.0   99999.0   99999.00 
 117   12:10   100.00  99999.0   99999  99999.0   99999   99999.0   99999.0   99999.00 
 117   12:20   100.00  99999.0   99999  99999.0   99999   99999.0   99999.0   99999.00 
 117   12:30   100.00  99999.0   99999  99999.0   99999   99999.0   99999.0   99999.00 
 117   12:40   100.00  99999.0   99999  99999.0   99999   99999.0   99999.0   99999.00 
 117   12:50   100.00  99999.0   99999  99999.0   99999   99999.0   99999.0   99999.00 
 117   13:00   100.00  99999.0   99999  99999.0   99999   99999.0   99999.0   99999.00 
 117   13:10   100.00  99999.0   99999  99999.0   99999   99999.0   99999.0   99999.00 
 117   13:20   100.00  99999.0   99999  99999.0   99999   99999.0   99999.0   99999.00 
 117   13:30   100.00  99999.0   99999  99999.0   99999   99999.0   99999.0   99999.00 
 117   13:40   100.00  99999.0   99999  99999.0   99999   99999.0   99999.0   99999.00 
 117   13:50   100.00  99999.0   99999  99999.0   99999   99999.0   99999.0   99999.00 
 117   14:00   100.00  99999.0   99999  99999.0   99999   99999.0   99999.0   99999.00 
 117   14:10   100.00  99999.0   99999  99999.0   99999   99999.0   99999.0   99999.00 
 117   14:20   100.00  99999.0   99999  99999.0   99999   99999.0   99999.0   99999.00 
 117   14:30   100.00  99999.0   99999  99999.0   99999   99999.0   99999.0   99999.00 
 117   14:40   100.00  99999.0   99999  99999.0   99999   99999.0   99999.0   99999.00 
 117   14:50   100.00  99999.0   99999  99999.0   99999   99999.0   99999.0   99999.00 
 117   15:00   100.00  99999.0   99999  99999.0   99999   99999.0   99999.0   99999.00 
 117   15:10   746.00   74.1    -6   40.6    23    16.4   1469.7    2.34 

Return to Bodega Marine Reserve graphs page.


Western Regional Climate Center,wrcc@dri.edu